sensor_id;sensor_type;location;lat;lon;timestamp;P1;durP1;ratioP1;P2;durP2;ratioP2
48514;SDS011;34309;47.260;2.796;2023-06-19T00:02:12;4.35;;;2.10;;
48514;SDS011;34309;47.260;2.796;2023-06-19T00:04:46;1.38;;;1.27;;
48514;SDS011;34309;47.260;2.796;2023-06-19T00:07:19;1.88;;;1.77;;
48514;SDS011;34309;47.260;2.796;2023-06-19T00:09:53;1.60;;;1.52;;
48514;SDS011;34309;47.260;2.796;2023-06-19T00:12:27;3.85;;;2.15;;
48514;SDS011;34309;47.260;2.796;2023-06-19T00:15:02;1.70;;;1.60;;
48514;SDS011;34309;47.260;2.796;2023-06-19T00:17:36;1.52;;;1.45;;
48514;SDS011;34309;47.260;2.796;2023-06-19T00:20:10;1.52;;;1.42;;
48514;SDS011;34309;47.260;2.796;2023-06-19T00:22:45;1.58;;;1.58;;
48514;SDS011;34309;47.260;2.796;2023-06-19T00:25:23;2.08;;;1.42;;
48514;SDS011;34309;47.260;2.796;2023-06-19T00:27:57;6.18;;;2.20;;
48514;SDS011;34309;47.260;2.796;2023-06-19T00:30:32;2.28;;;2.15;;
48514;SDS011;34309;47.260;2.796;2023-06-19T00:33:07;2.30;;;2.20;;
48514;SDS011;34309;47.260;2.796;2023-06-19T00:35:41;2.00;;;1.90;;
48514;SDS011;34309;47.260;2.796;2023-06-19T00:38:15;1.63;;;1.58;;
48514;SDS011;34309;47.260;2.796;2023-06-19T00:40:48;1.80;;;1.70;;
48514;SDS011;34309;47.260;2.796;2023-06-19T00:43:22;2.00;;;1.90;;
48514;SDS011;34309;47.260;2.796;2023-06-19T00:45:57;1.20;;;1.20;;
48514;SDS011;34309;47.260;2.796;2023-06-19T00:48:31;1.42;;;1.27;;
48514;SDS011;34309;47.260;2.796;2023-06-19T00:51:06;2.60;;;2.40;;
48514;SDS011;34309;47.260;2.796;2023-06-19T00:53:40;1.92;;;1.83;;
48514;SDS011;34309;47.260;2.796;2023-06-19T00:56:14;1.20;;;1.10;;
48514;SDS011;34309;47.260;2.796;2023-06-19T00:58:49;1.38;;;1.33;;
48514;SDS011;34309;47.260;2.796;2023-06-19T01:01:27;1.77;;;1.67;;
48514;SDS011;34309;47.260;2.796;2023-06-19T01:04:01;2.17;;;2.08;;
48514;SDS011;34309;47.260;2.796;2023-06-19T01:06:36;1.70;;;1.60;;
48514;SDS011;34309;47.260;2.796;2023-06-19T01:09:16;2.38;;;2.22;;
48514;SDS011;34309;47.260;2.796;2023-06-19T01:11:54;1.75;;;1.65;;
48514;SDS011;34309;47.260;2.796;2023-06-19T01:14:31;2.40;;;2.20;;
48514;SDS011;34309;47.260;2.796;2023-06-19T01:17:12;2.92;;;1.88;;
48514;SDS011;34309;47.260;2.796;2023-06-19T01:19:46;1.83;;;1.73;;
48514;SDS011;34309;47.260;2.796;2023-06-19T01:22:29;1.83;;;1.73;;
48514;SDS011;34309;47.260;2.796;2023-06-19T01:25:04;2.63;;;2.42;;
48514;SDS011;34309;47.260;2.796;2023-06-19T01:27:38;1.88;;;1.77;;
48514;SDS011;34309;47.260;2.796;2023-06-19T01:30:13;1.02;;;1.02;;
48514;SDS011;34309;47.260;2.796;2023-06-19T01:32:48;1.98;;;1.83;;
48514;SDS011;34309;47.260;2.796;2023-06-19T01:35:30;2.25;;;2.05;;
48514;SDS011;34309;47.260;2.796;2023-06-19T01:38:09;2.10;;;2.00;;
48514;SDS011;34309;47.260;2.796;2023-06-19T01:40:45;2.25;;;2.15;;
48514;SDS011;34309;47.260;2.796;2023-06-19T01:43:21;1.55;;;1.45;;
48514;SDS011;34309;47.260;2.796;2023-06-19T01:45:56;2.28;;;2.08;;
48514;SDS011;34309;47.260;2.796;2023-06-19T01:48:30;2.33;;;2.13;;
48514;SDS011;34309;47.260;2.796;2023-06-19T01:51:04;2.03;;;1.92;;
48514;SDS011;34309;47.260;2.796;2023-06-19T01:53:39;2.58;;;2.45;;
48514;SDS011;34309;47.260;2.796;2023-06-19T01:56:14;1.92;;;1.83;;
48514;SDS011;34309;47.260;2.796;2023-06-19T01:58:48;2.15;;;2.05;;
48514;SDS011;34309;47.260;2.796;2023-06-19T02:01:22;1.48;;;1.40;;
48514;SDS011;34309;47.260;2.796;2023-06-19T02:03:56;1.73;;;1.63;;
48514;SDS011;34309;47.260;2.796;2023-06-19T02:06:30;1.63;;;1.52;;
48514;SDS011;34309;47.260;2.796;2023-06-19T02:09:05;1.58;;;1.50;;
48514;SDS011;34309;47.260;2.796;2023-06-19T02:11:39;3.83;;;2.75;;
48514;SDS011;34309;47.260;2.796;2023-06-19T02:14:13;1.73;;;1.65;;
48514;SDS011;34309;47.260;2.796;2023-06-19T02:16:47;2.22;;;2.05;;
48514;SDS011;34309;47.260;2.796;2023-06-19T02:19:20;2.20;;;2.10;;
48514;SDS011;34309;47.260;2.796;2023-06-19T02:21:54;2.15;;;2.05;;
48514;SDS011;34309;47.260;2.796;2023-06-19T02:24:29;1.48;;;1.42;;
48514;SDS011;34309;47.260;2.796;2023-06-19T02:27:04;1.83;;;1.73;;
48514;SDS011;34309;47.260;2.796;2023-06-19T02:29:33;2.88;;;2.70;;
48514;SDS011;34309;47.260;2.796;2023-06-19T02:32:07;1.60;;;1.50;;
48514;SDS011;34309;47.260;2.796;2023-06-19T02:34:41;1.52;;;1.42;;
48514;SDS011;34309;47.260;2.796;2023-06-19T02:37:15;1.80;;;1.70;;
48514;SDS011;34309;47.260;2.796;2023-06-19T02:39:50;1.60;;;1.55;;
48514;SDS011;34309;47.260;2.796;2023-06-19T02:42:24;1.08;;;1.08;;
48514;SDS011;34309;47.260;2.796;2023-06-19T02:44:57;2.03;;;1.92;;
48514;SDS011;34309;47.260;2.796;2023-06-19T02:47:34;1.63;;;1.52;;
48514;SDS011;34309;47.260;2.796;2023-06-19T02:50:08;1.70;;;1.58;;
48514;SDS011;34309;47.260;2.796;2023-06-19T02:52:42;1.85;;;1.75;;
48514;SDS011;34309;47.260;2.796;2023-06-19T02:55:17;1.63;;;1.52;;
48514;SDS011;34309;47.260;2.796;2023-06-19T02:57:51;2.22;;;2.13;;
48514;SDS011;34309;47.260;2.796;2023-06-19T03:00:25;1.70;;;1.60;;
48514;SDS011;34309;47.260;2.796;2023-06-19T03:03:00;1.80;;;1.70;;
48514;SDS011;34309;47.260;2.796;2023-06-19T03:05:33;2.83;;;2.63;;
48514;SDS011;34309;47.260;2.796;2023-06-19T03:08:07;1.40;;;1.40;;
48514;SDS011;34309;47.260;2.796;2023-06-19T03:10:42;1.65;;;1.55;;
48514;SDS011;34309;47.260;2.796;2023-06-19T03:13:16;3.53;;;2.03;;
48514;SDS011;34309;47.260;2.796;2023-06-19T03:15:50;7.47;;;1.88;;
48514;SDS011;34309;47.260;2.796;2023-06-19T03:18:24;1.98;;;1.88;;
48514;SDS011;34309;47.260;2.796;2023-06-19T03:20:57;1.38;;;1.30;;
48514;SDS011;34309;47.260;2.796;2023-06-19T03:23:31;2.25;;;2.00;;
48514;SDS011;34309;47.260;2.796;2023-06-19T03:26:06;1.75;;;1.65;;
48514;SDS011;34309;47.260;2.796;2023-06-19T03:28:40;1.33;;;1.33;;
48514;SDS011;34309;47.260;2.796;2023-06-19T03:31:14;1.58;;;1.48;;
48514;SDS011;34309;47.260;2.796;2023-06-19T03:33:48;1.70;;;1.60;;
48514;SDS011;34309;47.260;2.796;2023-06-19T03:36:22;1.80;;;1.70;;
48514;SDS011;34309;47.260;2.796;2023-06-19T03:38:55;2.10;;;2.00;;
48514;SDS011;34309;47.260;2.796;2023-06-19T03:41:30;2.35;;;2.25;;
48514;SDS011;34309;47.260;2.796;2023-06-19T03:44:04;2.50;;;2.30;;
48514;SDS011;34309;47.260;2.796;2023-06-19T03:46:38;1.55;;;1.45;;
48514;SDS011;34309;47.260;2.796;2023-06-19T03:49:11;1.88;;;1.77;;
48514;SDS011;34309;47.260;2.796;2023-06-19T03:51:45;2.03;;;1.92;;
48514;SDS011;34309;47.260;2.796;2023-06-19T03:54:19;1.25;;;1.20;;
48514;SDS011;34309;47.260;2.796;2023-06-19T03:56:54;1.38;;;1.27;;
48514;SDS011;34309;47.260;2.796;2023-06-19T03:59:28;1.55;;;1.45;;
48514;SDS011;34309;47.260;2.796;2023-06-19T04:02:01;1.95;;;1.85;;
48514;SDS011;34309;47.260;2.796;2023-06-19T04:04:35;1.55;;;1.45;;
48514;SDS011;34309;47.260;2.796;2023-06-19T04:07:09;2.08;;;1.98;;
48514;SDS011;34309;47.260;2.796;2023-06-19T04:09:42;2.22;;;2.13;;
48514;SDS011;34309;47.260;2.796;2023-06-19T04:12:18;2.00;;;1.73;;
48514;SDS011;34309;47.260;2.796;2023-06-19T04:14:51;3.05;;;2.50;;
48514;SDS011;34309;47.260;2.796;2023-06-19T04:17:25;2.47;;;2.28;;
48514;SDS011;34309;47.260;2.796;2023-06-19T04:19:59;1.83;;;1.73;;
48514;SDS011;34309;47.260;2.796;2023-06-19T04:22:33;1.75;;;1.67;;
48514;SDS011;34309;47.260;2.796;2023-06-19T04:25:07;1.52;;;1.42;;
48514;SDS011;34309;47.260;2.796;2023-06-19T04:27:43;1.50;;;1.40;;
48514;SDS011;34309;47.260;2.796;2023-06-19T04:30:17;1.52;;;1.42;;
48514;SDS011;34309;47.260;2.796;2023-06-19T04:32:52;1.95;;;1.85;;
48514;SDS011;34309;47.260;2.796;2023-06-19T04:35:26;1.27;;;1.27;;
48514;SDS011;34309;47.260;2.796;2023-06-19T04:37:59;2.80;;;2.33;;
48514;SDS011;34309;47.260;2.796;2023-06-19T04:40:33;2.00;;;1.90;;
48514;SDS011;34309;47.260;2.796;2023-06-19T04:43:08;2.25;;;2.15;;
48514;SDS011;34309;47.260;2.796;2023-06-19T04:45:42;1.65;;;1.55;;
48514;SDS011;34309;47.260;2.796;2023-06-19T04:48:16;1.50;;;1.40;;
48514;SDS011;34309;47.260;2.796;2023-06-19T04:50:50;1.63;;;1.52;;
48514;SDS011;34309;47.260;2.796;2023-06-19T04:53:24;2.95;;;2.75;;
48514;SDS011;34309;47.260;2.796;2023-06-19T04:55:53;1.80;;;1.70;;
48514;SDS011;34309;47.260;2.796;2023-06-19T04:58:28;1.70;;;1.60;;
48514;SDS011;34309;47.260;2.796;2023-06-19T05:01:03;1.85;;;1.75;;
48514;SDS011;34309;47.260;2.796;2023-06-19T05:03:37;2.58;;;2.40;;
48514;SDS011;34309;47.260;2.796;2023-06-19T05:06:11;1.70;;;1.60;;
48514;SDS011;34309;47.260;2.796;2023-06-19T05:08:44;2.13;;;2.03;;
48514;SDS011;34309;47.260;2.796;2023-06-19T05:11:18;1.70;;;1.63;;
48514;SDS011;34309;47.260;2.796;2023-06-19T05:13:53;2.42;;;2.30;;
48514;SDS011;34309;47.260;2.796;2023-06-19T05:16:27;1.60;;;1.50;;
48514;SDS011;34309;47.260;2.796;2023-06-19T05:19:00;1.60;;;1.50;;
48514;SDS011;34309;47.260;2.796;2023-06-19T05:21:34;1.88;;;1.77;;
48514;SDS011;34309;47.260;2.796;2023-06-19T05:24:08;1.55;;;1.45;;
48514;SDS011;34309;47.260;2.796;2023-06-19T05:26:42;2.25;;;2.15;;
48514;SDS011;34309;47.260;2.796;2023-06-19T05:29:17;2.08;;;1.85;;
48514;SDS011;34309;47.260;2.796;2023-06-19T05:31:51;1.45;;;1.42;;
48514;SDS011;34309;47.260;2.796;2023-06-19T05:34:26;9.73;;;1.83;;
48514;SDS011;34309;47.260;2.796;2023-06-19T05:36:59;1.83;;;1.73;;
48514;SDS011;34309;47.260;2.796;2023-06-19T05:39:35;2.58;;;2.38;;
48514;SDS011;34309;47.260;2.796;2023-06-19T05:42:08;3.20;;;3.00;;
48514;SDS011;34309;47.260;2.796;2023-06-19T05:44:44;1.88;;;1.77;;
48514;SDS011;34309;47.260;2.796;2023-06-19T05:47:17;2.42;;;2.22;;
48514;SDS011;34309;47.260;2.796;2023-06-19T05:49:52;2.25;;;2.05;;
48514;SDS011;34309;47.260;2.796;2023-06-19T05:52:25;1.80;;;1.70;;
48514;SDS011;34309;47.260;2.796;2023-06-19T05:54:59;1.70;;;1.60;;
48514;SDS011;34309;47.260;2.796;2023-06-19T05:57:33;3.00;;;2.80;;
48514;SDS011;34309;47.260;2.796;2023-06-19T06:00:09;2.47;;;2.20;;
48514;SDS011;34309;47.260;2.796;2023-06-19T06:02:45;2.20;;;2.00;;
48514;SDS011;34309;47.260;2.796;2023-06-19T06:05:19;4.72;;;2.88;;
48514;SDS011;34309;47.260;2.796;2023-06-19T06:07:53;1.95;;;1.85;;
48514;SDS011;34309;47.260;2.796;2023-06-19T06:10:23;2.17;;;1.98;;
48514;SDS011;34309;47.260;2.796;2023-06-19T06:12:57;1.52;;;1.48;;
48514;SDS011;34309;47.260;2.796;2023-06-19T06:15:32;1.73;;;1.63;;
48514;SDS011;34309;47.260;2.796;2023-06-19T06:18:06;2.28;;;2.17;;
48514;SDS011;34309;47.260;2.796;2023-06-19T06:20:39;1.83;;;1.73;;
48514;SDS011;34309;47.260;2.796;2023-06-19T06:23:13;2.55;;;2.38;;
48514;SDS011;34309;47.260;2.796;2023-06-19T06:25:47;2.60;;;2.40;;
48514;SDS011;34309;47.260;2.796;2023-06-19T06:28:22;2.67;;;2.35;;
48514;SDS011;34309;47.260;2.796;2023-06-19T06:31:00;3.05;;;2.85;;
48514;SDS011;34309;47.260;2.796;2023-06-19T06:33:34;3.03;;;2.83;;
48514;SDS011;34309;47.260;2.796;2023-06-19T06:36:07;2.60;;;2.40;;
48514;SDS011;34309;47.260;2.796;2023-06-19T06:38:36;2.58;;;2.47;;
48514;SDS011;34309;47.260;2.796;2023-06-19T06:41:10;2.85;;;2.75;;
48514;SDS011;34309;47.260;2.796;2023-06-19T06:43:44;3.03;;;2.83;;
48514;SDS011;34309;47.260;2.796;2023-06-19T06:46:19;3.13;;;2.92;;
48514;SDS011;34309;47.260;2.796;2023-06-19T06:48:53;3.65;;;3.35;;
48514;SDS011;34309;47.260;2.796;2023-06-19T06:51:27;2.13;;;2.03;;
48514;SDS011;34309;47.260;2.796;2023-06-19T06:54:00;2.97;;;2.78;;
48514;SDS011;34309;47.260;2.796;2023-06-19T06:56:35;3.42;;;3.22;;
48514;SDS011;34309;47.260;2.796;2023-06-19T06:59:09;2.25;;;2.13;;
48514;SDS011;34309;47.260;2.796;2023-06-19T07:01:44;3.85;;;3.40;;
48514;SDS011;34309;47.260;2.796;2023-06-19T07:04:18;3.50;;;3.20;;
48514;SDS011;34309;47.260;2.796;2023-06-19T07:06:51;4.20;;;3.90;;
48514;SDS011;34309;47.260;2.796;2023-06-19T07:09:25;3.63;;;3.42;;
48514;SDS011;34309;47.260;2.796;2023-06-19T07:11:59;3.45;;;3.25;;
48514;SDS011;34309;47.260;2.796;2023-06-19T07:14:35;2.80;;;2.60;;
48514;SDS011;34309;47.260;2.796;2023-06-19T07:17:10;3.10;;;2.90;;
48514;SDS011;34309;47.260;2.796;2023-06-19T07:19:44;3.00;;;2.15;;
48514;SDS011;34309;47.260;2.796;2023-06-19T07:22:18;2.63;;;2.50;;
48514;SDS011;34309;47.260;2.796;2023-06-19T07:24:52;4.07;;;3.75;;
48514;SDS011;34309;47.260;2.796;2023-06-19T07:27:26;2.45;;;2.35;;
48514;SDS011;34309;47.260;2.796;2023-06-19T07:29:55;4.63;;;4.22;;
48514;SDS011;34309;47.260;2.796;2023-06-19T07:32:30;4.07;;;3.78;;
48514;SDS011;34309;47.260;2.796;2023-06-19T07:35:04;3.03;;;2.72;;
48514;SDS011;34309;47.260;2.796;2023-06-19T07:37:39;3.20;;;2.88;;
48514;SDS011;34309;47.260;2.796;2023-06-19T07:40:13;3.67;;;3.38;;
48514;SDS011;34309;47.260;2.796;2023-06-19T07:42:47;4.00;;;3.45;;
48514;SDS011;34309;47.260;2.796;2023-06-19T07:45:20;7.70;;;4.20;;
48514;SDS011;34309;47.260;2.796;2023-06-19T07:47:57;3.33;;;2.95;;
48514;SDS011;34309;47.260;2.796;2023-06-19T07:50:30;4.05;;;3.45;;
48514;SDS011;34309;47.260;2.796;2023-06-19T07:53:04;2.85;;;2.53;;
48514;SDS011;34309;47.260;2.796;2023-06-19T07:55:38;5.07;;;4.43;;
48514;SDS011;34309;47.260;2.796;2023-06-19T07:58:12;3.75;;;3.05;;
48514;SDS011;34309;47.260;2.796;2023-06-19T08:00:45;4.00;;;3.70;;
48514;SDS011;34309;47.260;2.796;2023-06-19T08:03:21;2.55;;;2.35;;
48514;SDS011;34309;47.260;2.796;2023-06-19T08:05:55;9.80;;;2.60;;
48514;SDS011;34309;47.260;2.796;2023-06-19T08:08:29;2.65;;;2.55;;
48514;SDS011;34309;47.260;2.796;2023-06-19T08:11:03;2.38;;;2.17;;
48514;SDS011;34309;47.260;2.796;2023-06-19T08:13:37;3.50;;;2.47;;
48514;SDS011;34309;47.260;2.796;2023-06-19T08:16:10;2.78;;;2.58;;
48514;SDS011;34309;47.260;2.796;2023-06-19T08:18:45;2.67;;;2.47;;
48514;SDS011;34309;47.260;2.796;2023-06-19T08:21:15;2.28;;;2.13;;
48514;SDS011;34309;47.260;2.796;2023-06-19T08:23:49;3.85;;;3.47;;
48514;SDS011;34309;47.260;2.796;2023-06-19T08:26:23;3.72;;;2.38;;
48514;SDS011;34309;47.260;2.796;2023-06-19T08:28:56;4.72;;;4.45;;
48514;SDS011;34309;47.260;2.796;2023-06-19T08:31:30;2.80;;;2.63;;
48514;SDS011;34309;47.260;2.796;2023-06-19T08:34:07;2.80;;;2.58;;
48514;SDS011;34309;47.260;2.796;2023-06-19T08:36:41;2.25;;;2.13;;
48514;SDS011;34309;47.260;2.796;2023-06-19T08:39:15;3.25;;;2.63;;
48514;SDS011;34309;47.260;2.796;2023-06-19T08:41:49;5.18;;;4.43;;
48514;SDS011;34309;47.260;2.796;2023-06-19T08:44:24;3.05;;;2.85;;
48514;SDS011;34309;47.260;2.796;2023-06-19T08:46:58;3.05;;;2.80;;
48514;SDS011;34309;47.260;2.796;2023-06-19T08:49:34;2.90;;;2.70;;
48514;SDS011;34309;47.260;2.796;2023-06-19T08:52:08;3.30;;;2.60;;
48514;SDS011;34309;47.260;2.796;2023-06-19T08:54:42;2.80;;;2.35;;
48514;SDS011;34309;47.260;2.796;2023-06-19T08:57:16;3.38;;;3.17;;
48514;SDS011;34309;47.260;2.796;2023-06-19T08:59:50;2.30;;;2.10;;
48514;SDS011;34309;47.260;2.796;2023-06-19T09:02:24;8.00;;;4.97;;
48514;SDS011;34309;47.260;2.796;2023-06-19T09:05:09;4.95;;;3.20;;
48514;SDS011;34309;47.260;2.796;2023-06-19T09:07:44;3.47;;;3.20;;
48514;SDS011;34309;47.260;2.796;2023-06-19T09:10:27;2.67;;;2.38;;
48514;SDS011;34309;47.260;2.796;2023-06-19T09:13:01;3.67;;;3.38;;
48514;SDS011;34309;47.260;2.796;2023-06-19T09:15:37;2.92;;;2.72;;
48514;SDS011;34309;47.260;2.796;2023-06-19T09:18:11;3.83;;;3.53;;
48514;SDS011;34309;47.260;2.796;2023-06-19T09:20:46;2.88;;;2.65;;
48514;SDS011;34309;47.260;2.796;2023-06-19T09:23:20;3.63;;;2.83;;
48514;SDS011;34309;47.260;2.796;2023-06-19T09:25:54;2.20;;;2.10;;
48514;SDS011;34309;47.260;2.796;2023-06-19T09:28:30;3.00;;;2.63;;
48514;SDS011;34309;47.260;2.796;2023-06-19T09:31:04;3.08;;;2.83;;
48514;SDS011;34309;47.260;2.796;2023-06-19T09:33:39;3.25;;;3.00;;
48514;SDS011;34309;47.260;2.796;2023-06-19T09:36:20;3.15;;;2.80;;
48514;SDS011;34309;47.260;2.796;2023-06-19T09:38:54;2.58;;;2.40;;
48514;SDS011;34309;47.260;2.796;2023-06-19T09:41:29;2.13;;;2.00;;
48514;SDS011;34309;47.260;2.796;2023-06-19T09:44:03;3.92;;;3.65;;
48514;SDS011;34309;47.260;2.796;2023-06-19T09:46:44;4.25;;;3.40;;
48514;SDS011;34309;47.260;2.796;2023-06-19T09:49:19;4.93;;;3.75;;
48514;SDS011;34309;47.260;2.796;2023-06-19T09:51:58;3.00;;;2.80;;
48514;SDS011;34309;47.260;2.796;2023-06-19T09:54:33;3.05;;;2.85;;
48514;SDS011;34309;47.260;2.796;2023-06-19T09:57:08;3.05;;;2.85;;
48514;SDS011;34309;47.260;2.796;2023-06-19T09:59:43;2.75;;;2.55;;
48514;SDS011;34309;47.260;2.796;2023-06-19T10:02:21;56.78;;;28.05;;
48514;SDS011;34309;47.260;2.796;2023-06-19T10:04:56;75.57;;;35.30;;
48514;SDS011;34309;47.260;2.796;2023-06-19T10:07:34;90.38;;;39.42;;
48514;SDS011;34309;47.260;2.796;2023-06-19T10:10:09;86.15;;;38.40;;
48514;SDS011;34309;47.260;2.796;2023-06-19T10:12:45;81.20;;;39.22;;
48514;SDS011;34309;47.260;2.796;2023-06-19T10:15:20;64.05;;;32.88;;
48514;SDS011;34309;47.260;2.796;2023-06-19T10:17:59;45.88;;;22.08;;
48514;SDS011;34309;47.260;2.796;2023-06-19T10:20:34;45.85;;;23.00;;
48514;SDS011;34309;47.260;2.796;2023-06-19T10:23:12;58.63;;;23.98;;
48514;SDS011;34309;47.260;2.796;2023-06-19T10:25:54;39.30;;;19.88;;
48514;SDS011;34309;47.260;2.796;2023-06-19T10:28:30;53.72;;;23.73;;
48514;SDS011;34309;47.260;2.796;2023-06-19T10:31:06;54.58;;;20.88;;
48514;SDS011;34309;47.260;2.796;2023-06-19T10:33:41;43.00;;;17.20;;
48514;SDS011;34309;47.260;2.796;2023-06-19T10:36:15;42.17;;;17.63;;
48514;SDS011;34309;47.260;2.796;2023-06-19T10:38:46;35.95;;;15.77;;
48514;SDS011;34309;47.260;2.796;2023-06-19T10:41:21;20.98;;;11.15;;
48514;SDS011;34309;47.260;2.796;2023-06-19T10:43:57;34.25;;;16.83;;
48514;SDS011;34309;47.260;2.796;2023-06-19T10:46:33;33.70;;;17.38;;
48514;SDS011;34309;47.260;2.796;2023-06-19T10:49:08;41.35;;;14.88;;
48514;SDS011;34309;47.260;2.796;2023-06-19T10:51:45;24.38;;;13.43;;
48514;SDS011;34309;47.260;2.796;2023-06-19T10:54:22;17.95;;;10.73;;
48514;SDS011;34309;47.260;2.796;2023-06-19T10:56:56;23.35;;;11.90;;
48514;SDS011;34309;47.260;2.796;2023-06-19T10:59:34;26.70;;;13.90;;
48514;SDS011;34309;47.260;2.796;2023-06-19T11:02:11;27.98;;;13.02;;
48514;SDS011;34309;47.260;2.796;2023-06-19T11:04:39;22.65;;;10.85;;
48514;SDS011;34309;47.260;2.796;2023-06-19T11:07:13;20.23;;;11.43;;
48514;SDS011;34309;47.260;2.796;2023-06-19T11:09:43;14.85;;;9.82;;
48514;SDS011;34309;47.260;2.796;2023-06-19T11:12:20;27.90;;;10.60;;
48514;SDS011;34309;47.260;2.796;2023-06-19T11:14:54;21.42;;;9.35;;
48514;SDS011;34309;47.260;2.796;2023-06-19T11:17:27;10.60;;;7.18;;
48514;SDS011;34309;47.260;2.796;2023-06-19T11:20:01;10.25;;;7.47;;
48514;SDS011;34309;47.260;2.796;2023-06-19T11:22:37;21.10;;;8.75;;
48514;SDS011;34309;47.260;2.796;2023-06-19T11:25:13;10.32;;;7.10;;
48514;SDS011;34309;47.260;2.796;2023-06-19T11:27:47;14.43;;;9.63;;
48514;SDS011;34309;47.260;2.796;2023-06-19T11:30:30;12.75;;;6.57;;
48514;SDS011;34309;47.260;2.796;2023-06-19T11:33:14;12.35;;;6.88;;
48514;SDS011;34309;47.260;2.796;2023-06-19T11:35:46;5.03;;;4.53;;
48514;SDS011;34309;47.260;2.796;2023-06-19T11:38:21;6.60;;;5.65;;
48514;SDS011;34309;47.260;2.796;2023-06-19T11:40:57;6.70;;;4.80;;
48514;SDS011;34309;47.260;2.796;2023-06-19T11:43:32;5.57;;;4.72;;
48514;SDS011;34309;47.260;2.796;2023-06-19T11:46:07;11.02;;;5.50;;
48514;SDS011;34309;47.260;2.796;2023-06-19T11:48:41;7.65;;;5.55;;
48514;SDS011;34309;47.260;2.796;2023-06-19T11:51:15;10.98;;;6.00;;
48514;SDS011;34309;47.260;2.796;2023-06-19T11:53:49;5.82;;;4.97;;
48514;SDS011;34309;47.260;2.796;2023-06-19T11:56:25;4.15;;;3.22;;
48514;SDS011;34309;47.260;2.796;2023-06-19T11:58:58;8.05;;;3.92;;
48514;SDS011;34309;47.260;2.796;2023-06-19T12:01:33;4.50;;;4.00;;
48514;SDS011;34309;47.260;2.796;2023-06-19T12:04:08;7.30;;;4.60;;
48514;SDS011;34309;47.260;2.796;2023-06-19T12:06:41;3.28;;;2.97;;
48514;SDS011;34309;47.260;2.796;2023-06-19T12:09:15;5.43;;;4.20;;
48514;SDS011;34309;47.260;2.796;2023-06-19T12:11:51;3.17;;;2.97;;
48514;SDS011;34309;47.260;2.796;2023-06-19T12:14:25;4.53;;;3.63;;
48514;SDS011;34309;47.260;2.796;2023-06-19T12:16:59;7.75;;;3.88;;
48514;SDS011;34309;47.260;2.796;2023-06-19T12:19:28;4.75;;;3.88;;
48514;SDS011;34309;47.260;2.796;2023-06-19T12:22:03;2.72;;;2.53;;
48514;SDS011;34309;47.260;2.796;2023-06-19T12:24:37;2.55;;;2.35;;
48514;SDS011;34309;47.260;2.796;2023-06-19T12:27:12;3.20;;;2.75;;
48514;SDS011;34309;47.260;2.796;2023-06-19T12:29:47;3.65;;;2.90;;
48514;SDS011;34309;47.260;2.796;2023-06-19T12:32:20;2.83;;;2.25;;
48514;SDS011;34309;47.260;2.796;2023-06-19T12:34:54;2.20;;;1.70;;
48514;SDS011;34309;47.260;2.796;2023-06-19T12:37:28;4.90;;;3.95;;
48514;SDS011;34309;47.260;2.796;2023-06-19T12:40:03;2.40;;;2.30;;
48514;SDS011;34309;47.260;2.796;2023-06-19T12:42:41;2.22;;;1.92;;
48514;SDS011;34309;47.260;2.796;2023-06-19T12:45:15;3.45;;;3.15;;
48514;SDS011;34309;47.260;2.796;2023-06-19T12:47:49;2.38;;;2.22;;
48514;SDS011;34309;47.260;2.796;2023-06-19T12:50:23;2.92;;;2.67;;
48514;SDS011;34309;47.260;2.796;2023-06-19T12:52:57;5.32;;;2.72;;
48514;SDS011;34309;47.260;2.796;2023-06-19T12:55:31;2.40;;;2.28;;
48514;SDS011;34309;47.260;2.796;2023-06-19T12:58:06;4.93;;;2.97;;
48514;SDS011;34309;47.260;2.796;2023-06-19T13:00:40;2.85;;;2.65;;
48514;SDS011;34309;47.260;2.796;2023-06-19T13:03:14;5.78;;;2.13;;
48514;SDS011;34309;47.260;2.796;2023-06-19T13:05:48;1.77;;;1.67;;
48514;SDS011;34309;47.260;2.796;2023-06-19T13:08:21;7.15;;;2.42;;
48514;SDS011;34309;47.260;2.796;2023-06-19T13:10:55;3.08;;;2.15;;
48514;SDS011;34309;47.260;2.796;2023-06-19T13:13:30;3.03;;;2.83;;
48514;SDS011;34309;47.260;2.796;2023-06-19T13:16:04;2.05;;;1.60;;
48514;SDS011;34309;47.260;2.796;2023-06-19T13:18:38;4.63;;;3.47;;
48514;SDS011;34309;47.260;2.796;2023-06-19T13:21:11;2.53;;;2.35;;
48514;SDS011;34309;47.260;2.796;2023-06-19T13:23:45;2.83;;;2.60;;
48514;SDS011;34309;47.260;2.796;2023-06-19T13:26:20;2.67;;;2.47;;
48514;SDS011;34309;47.260;2.796;2023-06-19T13:28:55;2.08;;;1.98;;
48514;SDS011;34309;47.260;2.796;2023-06-19T13:31:30;1.83;;;1.73;;
48514;SDS011;34309;47.260;2.796;2023-06-19T13:34:04;2.53;;;2.35;;
48514;SDS011;34309;47.260;2.796;2023-06-19T13:36:38;2.60;;;2.47;;
48514;SDS011;34309;47.260;2.796;2023-06-19T13:39:12;6.30;;;2.10;;
48514;SDS011;34309;47.260;2.796;2023-06-19T13:41:46;2.03;;;1.88;;
48514;SDS011;34309;47.260;2.796;2023-06-19T13:44:22;2.63;;;2.42;;
48514;SDS011;34309;47.260;2.796;2023-06-19T13:46:55;2.17;;;1.92;;
48514;SDS011;34309;47.260;2.796;2023-06-19T13:49:29;1.67;;;1.58;;
48514;SDS011;34309;47.260;2.796;2023-06-19T13:52:03;2.05;;;1.92;;
48514;SDS011;34309;47.260;2.796;2023-06-19T13:54:37;3.78;;;2.25;;
48514;SDS011;34309;47.260;2.796;2023-06-19T13:57:11;1.80;;;1.70;;
48514;SDS011;34309;47.260;2.796;2023-06-19T13:59:49;3.00;;;2.80;;
48514;SDS011;34309;47.260;2.796;2023-06-19T14:02:23;2.15;;;1.95;;
48514;SDS011;34309;47.260;2.796;2023-06-19T14:04:57;2.03;;;1.92;;
48514;SDS011;34309;47.260;2.796;2023-06-19T14:07:31;5.07;;;1.52;;
48514;SDS011;34309;47.260;2.796;2023-06-19T14:10:07;1.33;;;1.23;;
48514;SDS011;34309;47.260;2.796;2023-06-19T14:12:41;1.83;;;1.70;;
48514;SDS011;34309;47.260;2.796;2023-06-19T14:15:16;2.00;;;1.90;;
48514;SDS011;34309;47.260;2.796;2023-06-19T14:17:50;2.67;;;2.53;;
48514;SDS011;34309;47.260;2.796;2023-06-19T14:20:24;2.75;;;2.53;;
48514;SDS011;34309;47.260;2.796;2023-06-19T14:22:58;2.00;;;1.80;;
48514;SDS011;34309;47.260;2.796;2023-06-19T14:25:31;2.78;;;2.58;;
48514;SDS011;34309;47.260;2.796;2023-06-19T14:28:05;1.92;;;1.80;;
48514;SDS011;34309;47.260;2.796;2023-06-19T14:30:40;2.13;;;2.03;;
48514;SDS011;34309;47.260;2.796;2023-06-19T14:33:14;1.80;;;1.70;;
48514;SDS011;34309;47.260;2.796;2023-06-19T14:35:48;1.90;;;1.80;;
48514;SDS011;34309;47.260;2.796;2023-06-19T14:38:22;10.68;;;7.43;;
48514;SDS011;34309;47.260;2.796;2023-06-19T14:40:59;26.42;;;14.00;;
48514;SDS011;34309;47.260;2.796;2023-06-19T14:43:33;16.75;;;9.90;;
48514;SDS011;34309;47.260;2.796;2023-06-19T14:46:09;60.80;;;23.15;;
48514;SDS011;34309;47.260;2.796;2023-06-19T14:48:43;16.60;;;10.52;;
48514;SDS011;34309;47.260;2.796;2023-06-19T14:51:17;29.45;;;13.07;;
48514;SDS011;34309;47.260;2.796;2023-06-19T14:53:51;24.20;;;13.13;;
48514;SDS011;34309;47.260;2.796;2023-06-19T14:56:25;48.22;;;17.33;;
48514;SDS011;34309;47.260;2.796;2023-06-19T14:58:59;27.58;;;11.82;;
48514;SDS011;34309;47.260;2.796;2023-06-19T15:01:34;34.10;;;15.85;;
48514;SDS011;34309;47.260;2.796;2023-06-19T15:04:08;29.55;;;15.02;;
48514;SDS011;34309;47.260;2.796;2023-06-19T15:06:41;20.27;;;9.05;;
48514;SDS011;34309;47.260;2.796;2023-06-19T15:09:18;52.45;;;24.77;;
48514;SDS011;34309;47.260;2.796;2023-06-19T15:11:52;31.52;;;21.08;;
48514;SDS011;34309;47.260;2.796;2023-06-19T15:14:26;29.98;;;13.88;;
48514;SDS011;34309;47.260;2.796;2023-06-19T15:17:01;12.45;;;8.40;;
48514;SDS011;34309;47.260;2.796;2023-06-19T15:19:35;19.88;;;4.30;;
48514;SDS011;34309;47.260;2.796;2023-06-19T15:22:09;7.55;;;5.25;;
48514;SDS011;34309;47.260;2.796;2023-06-19T15:24:43;13.80;;;6.85;;
48514;SDS011;34309;47.260;2.796;2023-06-19T15:27:17;16.75;;;11.60;;